Terminal Aerodrome Forecast
Issued by NWS Mt. Holly, NJ

Current Version | Previous Version | Text Only | Print | Product List | Glossary On
Versions: 1 2 3 4 5 6 7 8 9 10 11 12 13 14 15 16 17 18 19 20 21 22 23 24
000
FTUS41 KPHI 192100 AAA
TAFPHL
TAF AMD
KPHL 192106Z 1921/2024 31012KT P6SM SCT040
     FM200000 33007KT P6SM SCT035 SCT200
     FM201300 35005KT P6SM SCT030 BKN200=

USA.gov is the U.S. government's official web portal to all federal, state and local government web resources and services.